Gt Bend, New York
Current Conditions -  °F | °C
As of 2:58 AM on Friday 21 Nov 2014 (Local Time) from KGTB Reporting Station
Overcast Overcast  
Wind Chill: 12°   Ceiling: 3400
Heat Index: 19°   Visibility: 10mi
Dew Point: 13°   Wind: 5mph
Humidity: 78%   Direction: 260°W
Pressure: 29.96"   Gusts: NA
Location:  44.0344°N, 75.7193°W
Report Text: KGTB 210758Z AUTO 26004KT 10SM BKN034 OVC090 M07/M10 A2996 RMK AO2 SLP156 T10731105
Loading
Personal Weather Stations






























Interactive Weather Map New forecast layout! Learn more

10-Day Weather Forecast

Advertisements
Track Severe Weather on mobile